sensor_id;sensor_type;location;lat;lon;timestamp;P1;durP1;ratioP1;P2;durP2;ratioP2
80425;SDS011;69766;51.476;5.704;2024-02-21T00:00:04;24.40;;;8.23;;
80425;SDS011;69766;51.476;5.704;2024-02-21T00:02:30;28.48;;;8.75;;
80425;SDS011;69766;51.476;5.704;2024-02-21T00:04:56;22.00;;;7.97;;
80425;SDS011;69766;51.476;5.704;2024-02-21T00:07:22;21.88;;;7.60;;
80425;SDS011;69766;51.476;5.704;2024-02-21T00:09:47;27.35;;;8.45;;
80425;SDS011;69766;51.476;5.704;2024-02-21T00:12:14;20.40;;;8.10;;
80425;SDS011;69766;51.476;5.704;2024-02-21T00:14:39;26.27;;;8.80;;
80425;SDS011;69766;51.476;5.704;2024-02-21T00:17:05;21.48;;;7.63;;
80425;SDS011;69766;51.476;5.704;2024-02-21T00:19:33;18.85;;;7.88;;
80425;SDS011;69766;51.476;5.704;2024-02-21T00:21:59;21.58;;;7.30;;
80425;SDS011;69766;51.476;5.704;2024-02-21T00:24:24;22.40;;;7.30;;
80425;SDS011;69766;51.476;5.704;2024-02-21T00:26:50;19.50;;;7.10;;
80425;SDS011;69766;51.476;5.704;2024-02-21T00:29:16;24.00;;;8.00;;
80425;SDS011;69766;51.476;5.704;2024-02-21T00:31:41;22.67;;;7.75;;
80425;SDS011;69766;51.476;5.704;2024-02-21T00:34:09;18.83;;;7.10;;
80425;SDS011;69766;51.476;5.704;2024-02-21T00:36:35;24.20;;;8.02;;
80425;SDS011;69766;51.476;5.704;2024-02-21T00:39:01;19.05;;;7.53;;
80425;SDS011;69766;51.476;5.704;2024-02-21T00:41:26;16.20;;;6.90;;
80425;SDS011;69766;51.476;5.704;2024-02-21T00:43:52;22.88;;;7.25;;
80425;SDS011;69766;51.476;5.704;2024-02-21T00:46:18;18.38;;;7.85;;
80425;SDS011;69766;51.476;5.704;2024-02-21T00:48:43;17.83;;;6.80;;
80425;SDS011;69766;51.476;5.704;2024-02-21T00:51:12;23.25;;;8.02;;
80425;SDS011;69766;51.476;5.704;2024-02-21T00:53:38;17.50;;;6.70;;
80425;SDS011;69766;51.476;5.704;2024-02-21T00:56:07;21.70;;;7.25;;
80425;SDS011;69766;51.476;5.704;2024-02-21T00:58:36;19.35;;;6.80;;
80425;SDS011;69766;51.476;5.704;2024-02-21T01:01:01;17.63;;;7.10;;
80425;SDS011;69766;51.476;5.704;2024-02-21T01:03:28;20.08;;;6.63;;
80425;SDS011;69766;51.476;5.704;2024-02-21T01:05:53;19.00;;;7.30;;
80425;SDS011;69766;51.476;5.704;2024-02-21T01:08:19;24.58;;;7.35;;
80425;SDS011;69766;51.476;5.704;2024-02-21T01:10:45;22.95;;;8.15;;
80425;SDS011;69766;51.476;5.704;2024-02-21T01:13:10;15.43;;;7.55;;
80425;SDS011;69766;51.476;5.704;2024-02-21T01:15:36;21.88;;;6.95;;
80425;SDS011;69766;51.476;5.704;2024-02-21T01:18:02;25.23;;;7.75;;
80425;SDS011;69766;51.476;5.704;2024-02-21T01:20:28;21.83;;;6.75;;
80425;SDS011;69766;51.476;5.704;2024-02-21T01:22:54;20.63;;;7.15;;
80425;SDS011;69766;51.476;5.704;2024-02-21T01:25:19;22.20;;;7.13;;
80425;SDS011;69766;51.476;5.704;2024-02-21T01:27:45;23.20;;;6.40;;
80425;SDS011;69766;51.476;5.704;2024-02-21T01:30:11;18.35;;;6.63;;
80425;SDS011;69766;51.476;5.704;2024-02-21T01:32:36;14.88;;;6.22;;
80425;SDS011;69766;51.476;5.704;2024-02-21T01:35:02;25.75;;;6.70;;
80425;SDS011;69766;51.476;5.704;2024-02-21T01:37:28;21.17;;;6.72;;
80425;SDS011;69766;51.476;5.704;2024-02-21T01:39:54;17.50;;;6.78;;
80425;SDS011;69766;51.476;5.704;2024-02-21T01:42:19;16.05;;;5.82;;
80425;SDS011;69766;51.476;5.704;2024-02-21T01:44:45;19.58;;;8.63;;
80425;SDS011;69766;51.476;5.704;2024-02-21T01:47:11;18.85;;;7.13;;
80425;SDS011;69766;51.476;5.704;2024-02-21T01:49:40;17.67;;;7.03;;
80425;SDS011;69766;51.476;5.704;2024-02-21T01:52:06;17.20;;;6.43;;
80425;SDS011;69766;51.476;5.704;2024-02-21T01:54:33;19.67;;;7.00;;
80425;SDS011;69766;51.476;5.704;2024-02-21T01:56:59;19.65;;;5.93;;
80425;SDS011;69766;51.476;5.704;2024-02-21T01:59:26;20.05;;;7.07;;
80425;SDS011;69766;51.476;5.704;2024-02-21T02:01:52;14.13;;;6.43;;
80425;SDS011;69766;51.476;5.704;2024-02-21T02:04:18;18.10;;;7.00;;
80425;SDS011;69766;51.476;5.704;2024-02-21T02:06:48;20.50;;;6.75;;
80425;SDS011;69766;51.476;5.704;2024-02-21T02:09:15;18.75;;;6.57;;
80425;SDS011;69766;51.476;5.704;2024-02-21T02:11:41;15.07;;;5.90;;
80425;SDS011;69766;51.476;5.704;2024-02-21T02:14:08;18.48;;;5.85;;
80425;SDS011;69766;51.476;5.704;2024-02-21T02:16:36;19.02;;;6.00;;
80425;SDS011;69766;51.476;5.704;2024-02-21T02:19:02;18.38;;;5.50;;
80425;SDS011;69766;51.476;5.704;2024-02-21T02:21:34;13.82;;;5.50;;
80425;SDS011;69766;51.476;5.704;2024-02-21T02:24:05;22.67;;;6.60;;
80425;SDS011;69766;51.476;5.704;2024-02-21T02:26:31;15.55;;;6.10;;
80425;SDS011;69766;51.476;5.704;2024-02-21T02:28:57;16.15;;;5.47;;
80425;SDS011;69766;51.476;5.704;2024-02-21T02:31:23;14.93;;;5.63;;
80425;SDS011;69766;51.476;5.704;2024-02-21T02:33:51;13.75;;;5.45;;
80425;SDS011;69766;51.476;5.704;2024-02-21T02:36:17;20.45;;;6.00;;
80425;SDS011;69766;51.476;5.704;2024-02-21T02:38:45;14.65;;;5.60;;
80425;SDS011;69766;51.476;5.704;2024-02-21T02:41:11;15.38;;;5.43;;
80425;SDS011;69766;51.476;5.704;2024-02-21T02:43:37;13.82;;;5.30;;
80425;SDS011;69766;51.476;5.704;2024-02-21T02:46:02;16.40;;;5.47;;
80425;SDS011;69766;51.476;5.704;2024-02-21T02:48:32;15.60;;;5.18;;
80425;SDS011;69766;51.476;5.704;2024-02-21T02:50:58;17.70;;;5.78;;
80425;SDS011;69766;51.476;5.704;2024-02-21T02:53:24;17.45;;;5.68;;
80425;SDS011;69766;51.476;5.704;2024-02-21T02:55:52;13.20;;;5.65;;
80425;SDS011;69766;51.476;5.704;2024-02-21T02:58:17;13.20;;;5.60;;
80425;SDS011;69766;51.476;5.704;2024-02-21T03:00:43;14.00;;;5.10;;
80425;SDS011;69766;51.476;5.704;2024-02-21T03:03:09;13.10;;;5.65;;
80425;SDS011;69766;51.476;5.704;2024-02-21T03:05:38;17.02;;;5.32;;
80425;SDS011;69766;51.476;5.704;2024-02-21T03:08:03;12.73;;;5.72;;
80425;SDS011;69766;51.476;5.704;2024-02-21T03:10:35;14.45;;;5.82;;
80425;SDS011;69766;51.476;5.704;2024-02-21T03:13:01;17.08;;;6.20;;
80425;SDS011;69766;51.476;5.704;2024-02-21T03:15:26;21.52;;;6.32;;
80425;SDS011;69766;51.476;5.704;2024-02-21T03:17:52;16.70;;;6.03;;
80425;SDS011;69766;51.476;5.704;2024-02-21T03:20:18;13.18;;;5.30;;
80425;SDS011;69766;51.476;5.704;2024-02-21T03:22:50;23.23;;;6.85;;
80425;SDS011;69766;51.476;5.704;2024-02-21T03:25:16;20.13;;;5.82;;
80425;SDS011;69766;51.476;5.704;2024-02-21T03:27:42;19.30;;;6.85;;
80425;SDS011;69766;51.476;5.704;2024-02-21T03:30:08;15.77;;;6.18;;
80425;SDS011;69766;51.476;5.704;2024-02-21T03:32:34;16.40;;;5.93;;
80425;SDS011;69766;51.476;5.704;2024-02-21T03:35:01;17.40;;;6.10;;
80425;SDS011;69766;51.476;5.704;2024-02-21T03:37:26;14.23;;;5.72;;
80425;SDS011;69766;51.476;5.704;2024-02-21T03:40:01;17.75;;;5.90;;
80425;SDS011;69766;51.476;5.704;2024-02-21T03:42:27;16.17;;;6.28;;
80425;SDS011;69766;51.476;5.704;2024-02-21T03:44:55;20.45;;;6.35;;
80425;SDS011;69766;51.476;5.704;2024-02-21T03:47:21;17.40;;;6.55;;
80425;SDS011;69766;51.476;5.704;2024-02-21T03:49:47;16.95;;;6.47;;
80425;SDS011;69766;51.476;5.704;2024-02-21T03:52:13;21.67;;;7.72;;
80425;SDS011;69766;51.476;5.704;2024-02-21T03:54:38;20.95;;;7.60;;
80425;SDS011;69766;51.476;5.704;2024-02-21T03:57:04;20.13;;;7.32;;
80425;SDS011;69766;51.476;5.704;2024-02-21T03:59:30;24.90;;;8.32;;
80425;SDS011;69766;51.476;5.704;2024-02-21T04:01:56;20.25;;;7.85;;
80425;SDS011;69766;51.476;5.704;2024-02-21T04:04:22;27.42;;;8.57;;
80425;SDS011;69766;51.476;5.704;2024-02-21T04:06:48;21.48;;;7.88;;
80425;SDS011;69766;51.476;5.704;2024-02-21T04:09:18;24.67;;;8.13;;
80425;SDS011;69766;51.476;5.704;2024-02-21T04:11:43;18.08;;;7.50;;
80425;SDS011;69766;51.476;5.704;2024-02-21T04:14:09;18.35;;;7.85;;
80425;SDS011;69766;51.476;5.704;2024-02-21T04:16:36;21.45;;;8.02;;
80425;SDS011;69766;51.476;5.704;2024-02-21T04:19:02;21.05;;;7.50;;
80425;SDS011;69766;51.476;5.704;2024-02-21T04:21:27;17.73;;;8.05;;
80425;SDS011;69766;51.476;5.704;2024-02-21T04:23:53;25.67;;;8.90;;
80425;SDS011;69766;51.476;5.704;2024-02-21T04:26:19;18.88;;;8.48;;
80425;SDS011;69766;51.476;5.704;2024-02-21T04:28:48;19.45;;;8.40;;
80425;SDS011;69766;51.476;5.704;2024-02-21T04:31:13;22.38;;;8.48;;
80425;SDS011;69766;51.476;5.704;2024-02-21T04:33:39;16.60;;;7.72;;
80425;SDS011;69766;51.476;5.704;2024-02-21T04:36:05;18.67;;;7.93;;
80425;SDS011;69766;51.476;5.704;2024-02-21T04:38:34;21.10;;;7.43;;
80425;SDS011;69766;51.476;5.704;2024-02-21T04:40:59;22.07;;;7.77;;
80425;SDS011;69766;51.476;5.704;2024-02-21T04:43:25;17.58;;;7.18;;
80425;SDS011;69766;51.476;5.704;2024-02-21T04:45:54;18.05;;;7.82;;
80425;SDS011;69766;51.476;5.704;2024-02-21T04:48:19;25.88;;;8.23;;
80425;SDS011;69766;51.476;5.704;2024-02-21T04:50:46;24.42;;;9.13;;
80425;SDS011;69766;51.476;5.704;2024-02-21T04:53:11;17.45;;;7.72;;
80425;SDS011;69766;51.476;5.704;2024-02-21T04:55:40;25.50;;;9.05;;
80425;SDS011;69766;51.476;5.704;2024-02-21T04:58:05;20.30;;;8.75;;
80425;SDS011;69766;51.476;5.704;2024-02-21T05:00:31;26.38;;;8.77;;
80425;SDS011;69766;51.476;5.704;2024-02-21T05:02:57;19.33;;;8.32;;
80425;SDS011;69766;51.476;5.704;2024-02-21T05:05:22;22.67;;;9.32;;
80425;SDS011;69766;51.476;5.704;2024-02-21T05:07:48;21.77;;;8.45;;
80425;SDS011;69766;51.476;5.704;2024-02-21T05:10:14;19.02;;;8.90;;
80425;SDS011;69766;51.476;5.704;2024-02-21T05:12:43;20.50;;;8.65;;
80425;SDS011;69766;51.476;5.704;2024-02-21T05:15:08;23.25;;;8.88;;
80425;SDS011;69766;51.476;5.704;2024-02-21T05:17:35;23.45;;;8.60;;
80425;SDS011;69766;51.476;5.704;2024-02-21T05:20:01;22.88;;;8.55;;
80425;SDS011;69766;51.476;5.704;2024-02-21T05:22:26;21.98;;;8.15;;
80425;SDS011;69766;51.476;5.704;2024-02-21T05:24:52;28.73;;;8.98;;
80425;SDS011;69766;51.476;5.704;2024-02-21T05:27:18;21.55;;;8.18;;
80425;SDS011;69766;51.476;5.704;2024-02-21T05:29:44;22.67;;;8.60;;
80425;SDS011;69766;51.476;5.704;2024-02-21T05:32:10;21.98;;;8.70;;
80425;SDS011;69766;51.476;5.704;2024-02-21T05:34:35;23.35;;;8.23;;
80425;SDS011;69766;51.476;5.704;2024-02-21T05:37:01;21.08;;;8.00;;
80425;SDS011;69766;51.476;5.704;2024-02-21T05:39:27;24.17;;;7.97;;
80425;SDS011;69766;51.476;5.704;2024-02-21T05:41:54;21.38;;;7.32;;
80425;SDS011;69766;51.476;5.704;2024-02-21T05:44:22;17.27;;;7.53;;
80425;SDS011;69766;51.476;5.704;2024-02-21T05:46:48;17.98;;;7.65;;
80425;SDS011;69766;51.476;5.704;2024-02-21T05:49:14;23.60;;;8.90;;
80425;SDS011;69766;51.476;5.704;2024-02-21T05:51:40;20.42;;;7.80;;
80425;SDS011;69766;51.476;5.704;2024-02-21T05:54:05;23.73;;;7.47;;
80425;SDS011;69766;51.476;5.704;2024-02-21T05:56:32;18.80;;;7.55;;
80425;SDS011;69766;51.476;5.704;2024-02-21T05:58:58;19.30;;;8.30;;
80425;SDS011;69766;51.476;5.704;2024-02-21T06:01:24;18.83;;;6.80;;
80425;SDS011;69766;51.476;5.704;2024-02-21T06:03:50;19.88;;;7.65;;
80425;SDS011;69766;51.476;5.704;2024-02-21T06:06:15;20.63;;;6.85;;
80425;SDS011;69766;51.476;5.704;2024-02-21T06:08:42;19.60;;;6.78;;
80425;SDS011;69766;51.476;5.704;2024-02-21T06:11:08;16.08;;;7.57;;
80425;SDS011;69766;51.476;5.704;2024-02-21T06:13:37;20.13;;;7.25;;
80425;SDS011;69766;51.476;5.704;2024-02-21T06:16:04;29.33;;;9.57;;
80425;SDS011;69766;51.476;5.704;2024-02-21T06:18:30;20.17;;;7.50;;
80425;SDS011;69766;51.476;5.704;2024-02-21T06:20:56;18.33;;;7.40;;
80425;SDS011;69766;51.476;5.704;2024-02-21T06:23:22;19.75;;;7.03;;
80425;SDS011;69766;51.476;5.704;2024-02-21T06:25:47;18.63;;;7.25;;
80425;SDS011;69766;51.476;5.704;2024-02-21T06:28:13;18.88;;;7.88;;
80425;SDS011;69766;51.476;5.704;2024-02-21T06:30:39;17.00;;;7.45;;
80425;SDS011;69766;51.476;5.704;2024-02-21T06:33:11;24.00;;;7.40;;
80425;SDS011;69766;51.476;5.704;2024-02-21T06:35:37;23.00;;;7.93;;
80425;SDS011;69766;51.476;5.704;2024-02-21T06:38:06;22.95;;;7.43;;
80425;SDS011;69766;51.476;5.704;2024-02-21T06:40:32;23.10;;;7.47;;
80425;SDS011;69766;51.476;5.704;2024-02-21T06:43:03;19.80;;;8.15;;
80425;SDS011;69766;51.476;5.704;2024-02-21T06:45:29;21.17;;;7.72;;
80425;SDS011;69766;51.476;5.704;2024-02-21T06:47:55;15.73;;;6.97;;
80425;SDS011;69766;51.476;5.704;2024-02-21T06:50:20;19.60;;;8.63;;
80425;SDS011;69766;51.476;5.704;2024-02-21T06:52:46;22.92;;;8.25;;
80425;SDS011;69766;51.476;5.704;2024-02-21T06:55:12;20.02;;;8.60;;
80425;SDS011;69766;51.476;5.704;2024-02-21T06:57:37;21.60;;;8.30;;
80425;SDS011;69766;51.476;5.704;2024-02-21T07:00:03;25.17;;;8.27;;
80425;SDS011;69766;51.476;5.704;2024-02-21T07:02:33;17.23;;;8.15;;
80425;SDS011;69766;51.476;5.704;2024-02-21T07:04:59;19.38;;;8.32;;
80425;SDS011;69766;51.476;5.704;2024-02-21T07:07:24;19.95;;;8.98;;
80425;SDS011;69766;51.476;5.704;2024-02-21T07:09:50;23.92;;;9.02;;
80425;SDS011;69766;51.476;5.704;2024-02-21T07:12:16;21.33;;;8.98;;
80425;SDS011;69766;51.476;5.704;2024-02-21T07:14:42;23.70;;;9.88;;
80425;SDS011;69766;51.476;5.704;2024-02-21T07:17:07;19.08;;;8.50;;
80425;SDS011;69766;51.476;5.704;2024-02-21T07:19:33;22.70;;;9.02;;
80425;SDS011;69766;51.476;5.704;2024-02-21T07:22:00;23.67;;;8.75;;
80425;SDS011;69766;51.476;5.704;2024-02-21T07:24:29;28.23;;;8.65;;
80425;SDS011;69766;51.476;5.704;2024-02-21T07:29:22;20.38;;;8.48;;
80425;SDS011;69766;51.476;5.704;2024-02-21T07:31:48;20.83;;;9.35;;
80425;SDS011;69766;51.476;5.704;2024-02-21T07:34:14;22.02;;;8.98;;
80425;SDS011;69766;51.476;5.704;2024-02-21T07:36:40;18.13;;;8.80;;
80425;SDS011;69766;51.476;5.704;2024-02-21T07:39:07;21.00;;;9.25;;
80425;SDS011;69766;51.476;5.704;2024-02-21T07:41:33;22.17;;;8.35;;
80425;SDS011;69766;51.476;5.704;2024-02-21T07:43:59;21.20;;;7.95;;
80425;SDS011;69766;51.476;5.704;2024-02-21T07:46:25;18.23;;;7.63;;
80425;SDS011;69766;51.476;5.704;2024-02-21T07:48:51;16.95;;;7.43;;
80425;SDS011;69766;51.476;5.704;2024-02-21T07:51:17;17.02;;;7.55;;
80425;SDS011;69766;51.476;5.704;2024-02-21T07:53:43;15.27;;;7.40;;
80425;SDS011;69766;51.476;5.704;2024-02-21T07:56:13;15.15;;;6.90;;
80425;SDS011;69766;51.476;5.704;2024-02-21T07:58:43;19.15;;;7.63;;
80425;SDS011;69766;51.476;5.704;2024-02-21T08:01:09;16.15;;;6.75;;
80425;SDS011;69766;51.476;5.704;2024-02-21T08:03:38;14.32;;;5.82;;
80425;SDS011;69766;51.476;5.704;2024-02-21T08:06:04;15.73;;;6.32;;
80425;SDS011;69766;51.476;5.704;2024-02-21T08:08:30;15.15;;;6.88;;
80425;SDS011;69766;51.476;5.704;2024-02-21T08:10:55;15.55;;;6.97;;
80425;SDS011;69766;51.476;5.704;2024-02-21T08:13:21;12.95;;;6.53;;
80425;SDS011;69766;51.476;5.704;2024-02-21T08:15:47;16.10;;;6.60;;
80425;SDS011;69766;51.476;5.704;2024-02-21T08:18:15;13.88;;;6.97;;
80425;SDS011;69766;51.476;5.704;2024-02-21T08:20:41;12.98;;;5.75;;
80425;SDS011;69766;51.476;5.704;2024-02-21T08:23:07;14.43;;;5.30;;
80425;SDS011;69766;51.476;5.704;2024-02-21T08:25:33;15.27;;;6.45;;
80425;SDS011;69766;51.476;5.704;2024-02-21T08:27:59;15.80;;;6.20;;
80425;SDS011;69766;51.476;5.704;2024-02-21T08:30:24;13.05;;;6.72;;
80425;SDS011;69766;51.476;5.704;2024-02-21T08:32:51;13.02;;;6.22;;
80425;SDS011;69766;51.476;5.704;2024-02-21T08:35:19;11.45;;;6.70;;
80425;SDS011;69766;51.476;5.704;2024-02-21T08:37:48;11.75;;;5.40;;
80425;SDS011;69766;51.476;5.704;2024-02-21T08:40:17;12.73;;;5.88;;
80425;SDS011;69766;51.476;5.704;2024-02-21T08:42:44;12.93;;;6.78;;
80425;SDS011;69766;51.476;5.704;2024-02-21T08:45:10;13.48;;;6.13;;
80425;SDS011;69766;51.476;5.704;2024-02-21T08:47:36;15.27;;;5.90;;
80425;SDS011;69766;51.476;5.704;2024-02-21T08:50:07;12.02;;;4.93;;
80425;SDS011;69766;51.476;5.704;2024-02-21T08:52:37;9.70;;;5.07;;
80425;SDS011;69766;51.476;5.704;2024-02-21T08:55:03;12.32;;;5.18;;
80425;SDS011;69766;51.476;5.704;2024-02-21T08:57:29;12.43;;;5.15;;
80425;SDS011;69766;51.476;5.704;2024-02-21T09:00:01;12.95;;;5.10;;
80425;SDS011;69766;51.476;5.704;2024-02-21T09:02:42;11.32;;;5.35;;
80425;SDS011;69766;51.476;5.704;2024-02-21T09:05:08;11.68;;;5.40;;
80425;SDS011;69766;51.476;5.704;2024-02-21T09:07:37;12.50;;;5.55;;
80425;SDS011;69766;51.476;5.704;2024-02-21T09:10:03;11.80;;;5.70;;
80425;SDS011;69766;51.476;5.704;2024-02-21T09:12:29;11.95;;;6.15;;
80425;SDS011;69766;51.476;5.704;2024-02-21T09:14:55;13.35;;;5.32;;
80425;SDS011;69766;51.476;5.704;2024-02-21T09:17:20;16.40;;;6.75;;
80425;SDS011;69766;51.476;5.704;2024-02-21T09:19:49;17.33;;;6.97;;
80425;SDS011;69766;51.476;5.704;2024-02-21T09:22:15;12.38;;;6.40;;
80425;SDS011;69766;51.476;5.704;2024-02-21T09:24:40;16.58;;;6.97;;
80425;SDS011;69766;51.476;5.704;2024-02-21T09:27:06;14.55;;;7.10;;
80425;SDS011;69766;51.476;5.704;2024-02-21T09:29:32;15.38;;;6.53;;
80425;SDS011;69766;51.476;5.704;2024-02-21T09:31:58;20.40;;;6.70;;
80425;SDS011;69766;51.476;5.704;2024-02-21T09:34:24;20.27;;;7.07;;
80425;SDS011;69766;51.476;5.704;2024-02-21T09:36:50;18.20;;;7.38;;
80425;SDS011;69766;51.476;5.704;2024-02-21T09:39:17;13.82;;;6.60;;
80425;SDS011;69766;51.476;5.704;2024-02-21T09:41:45;12.48;;;6.60;;
80425;SDS011;69766;51.476;5.704;2024-02-21T09:44:17;17.42;;;7.07;;
80425;SDS011;69766;51.476;5.704;2024-02-21T09:47:01;17.13;;;6.72;;
80425;SDS011;69766;51.476;5.704;2024-02-21T09:49:31;18.83;;;6.55;;
80425;SDS011;69766;51.476;5.704;2024-02-21T09:52:04;13.77;;;6.00;;
80425;SDS011;69766;51.476;5.704;2024-02-21T09:54:32;14.02;;;6.72;;
80425;SDS011;69766;51.476;5.704;2024-02-21T09:57:01;14.88;;;7.25;;
80425;SDS011;69766;51.476;5.704;2024-02-21T09:59:33;13.73;;;6.13;;
80425;SDS011;69766;51.476;5.704;2024-02-21T10:01:59;14.07;;;6.72;;
80425;SDS011;69766;51.476;5.704;2024-02-21T10:04:28;14.13;;;6.38;;
80425;SDS011;69766;51.476;5.704;2024-02-21T10:06:54;13.45;;;6.88;;
80425;SDS011;69766;51.476;5.704;2024-02-21T10:09:20;13.52;;;6.30;;
80425;SDS011;69766;51.476;5.704;2024-02-21T10:11:56;14.70;;;5.82;;
80425;SDS011;69766;51.476;5.704;2024-02-21T10:14:32;13.18;;;5.60;;
80425;SDS011;69766;51.476;5.704;2024-02-21T10:16:58;12.35;;;5.38;;
80425;SDS011;69766;51.476;5.704;2024-02-21T10:19:24;12.18;;;5.18;;
80425;SDS011;69766;51.476;5.704;2024-02-21T10:22:03;12.93;;;4.22;;
80425;SDS011;69766;51.476;5.704;2024-02-21T10:24:32;11.57;;;4.95;;
80425;SDS011;69766;51.476;5.704;2024-02-21T10:27:07;15.27;;;5.68;;
80425;SDS011;69766;51.476;5.704;2024-02-21T10:29:35;15.35;;;5.03;;
80425;SDS011;69766;51.476;5.704;2024-02-21T10:34:41;13.73;;;4.40;;
80425;SDS011;69766;51.476;5.704;2024-02-21T10:37:08;12.98;;;4.88;;
80425;SDS011;69766;51.476;5.704;2024-02-21T10:39:36;10.40;;;4.25;;
80425;SDS011;69766;51.476;5.704;2024-02-21T10:42:06;10.43;;;4.90;;
80425;SDS011;69766;51.476;5.704;2024-02-21T10:44:38;10.75;;;4.47;;
80425;SDS011;69766;51.476;5.704;2024-02-21T10:47:08;11.15;;;4.07;;
80425;SDS011;69766;51.476;5.704;2024-02-21T10:52:14;9.68;;;4.43;;
80425;SDS011;69766;51.476;5.704;2024-02-21T10:57:49;11.73;;;4.50;;
80425;SDS011;69766;51.476;5.704;2024-02-21T11:00:15;13.30;;;4.85;;
80425;SDS011;69766;51.476;5.704;2024-02-21T11:02:44;11.25;;;4.15;;
80425;SDS011;69766;51.476;5.704;2024-02-21T11:05:11;8.25;;;4.57;;
80425;SDS011;69766;51.476;5.704;2024-02-21T11:07:38;10.90;;;4.57;;
80425;SDS011;69766;51.476;5.704;2024-02-21T11:10:05;11.93;;;4.43;;
80425;SDS011;69766;51.476;5.704;2024-02-21T11:12:32;7.53;;;4.05;;
80425;SDS011;69766;51.476;5.704;2024-02-21T11:15:08;11.00;;;4.70;;
80425;SDS011;69766;51.476;5.704;2024-02-21T11:17:34;9.90;;;4.43;;
80425;SDS011;69766;51.476;5.704;2024-02-21T11:20:10;9.57;;;3.88;;
80425;SDS011;69766;51.476;5.704;2024-02-21T11:22:41;13.90;;;4.50;;
80425;SDS011;69766;51.476;5.704;2024-02-21T11:27:39;10.20;;;4.30;;
80425;SDS011;69766;51.476;5.704;2024-02-21T11:30:11;11.85;;;4.30;;
80425;SDS011;69766;51.476;5.704;2024-02-21T11:32:37;9.30;;;4.25;;
80425;SDS011;69766;51.476;5.704;2024-02-21T11:35:03;17.73;;;4.30;;
80425;SDS011;69766;51.476;5.704;2024-02-21T11:37:30;8.38;;;3.85;;
80425;SDS011;69766;51.476;5.704;2024-02-21T11:40:02;12.57;;;4.82;;
80425;SDS011;69766;51.476;5.704;2024-02-21T11:42:28;12.15;;;4.15;;
80425;SDS011;69766;51.476;5.704;2024-02-21T11:44:59;12.95;;;4.03;;
80425;SDS011;69766;51.476;5.704;2024-02-21T11:47:25;9.05;;;3.72;;
80425;SDS011;69766;51.476;5.704;2024-02-21T11:49:53;11.80;;;4.30;;
80425;SDS011;69766;51.476;5.704;2024-02-21T11:52:21;11.43;;;4.50;;
80425;SDS011;69766;51.476;5.704;2024-02-21T11:54:50;8.43;;;3.70;;
80425;SDS011;69766;51.476;5.704;2024-02-21T11:57:19;11.68;;;3.92;;
80425;SDS011;69766;51.476;5.704;2024-02-21T11:59:45;9.25;;;3.92;;
80425;SDS011;69766;51.476;5.704;2024-02-21T12:02:12;9.60;;;3.92;;
80425;SDS011;69766;51.476;5.704;2024-02-21T12:04:38;9.52;;;4.40;;
80425;SDS011;69766;51.476;5.704;2024-02-21T12:07:07;11.98;;;4.43;;
80425;SDS011;69766;51.476;5.704;2024-02-21T12:09:33;11.75;;;4.43;;
80425;SDS011;69766;51.476;5.704;2024-02-21T12:12:00;8.10;;;3.47;;
80425;SDS011;69766;51.476;5.704;2024-02-21T12:14:30;9.10;;;3.83;;
80425;SDS011;69766;51.476;5.704;2024-02-21T12:16:57;8.85;;;3.80;;
80425;SDS011;69766;51.476;5.704;2024-02-21T12:19:23;14.00;;;5.05;;
80425;SDS011;69766;51.476;5.704;2024-02-21T12:21:49;9.85;;;4.30;;
80425;SDS011;69766;51.476;5.704;2024-02-21T12:24:16;10.82;;;4.25;;
80425;SDS011;69766;51.476;5.704;2024-02-21T12:26:49;10.82;;;4.30;;
80425;SDS011;69766;51.476;5.704;2024-02-21T12:29:24;13.30;;;4.22;;
80425;SDS011;69766;51.476;5.704;2024-02-21T12:31:53;13.18;;;4.50;;
80425;SDS011;69766;51.476;5.704;2024-02-21T12:34:19;8.93;;;4.47;;
80425;SDS011;69766;51.476;5.704;2024-02-21T12:36:47;10.30;;;3.83;;
80425;SDS011;69766;51.476;5.704;2024-02-21T12:39:12;8.00;;;4.25;;
80425;SDS011;69766;51.476;5.704;2024-02-21T12:41:42;7.97;;;3.95;;
80425;SDS011;69766;51.476;5.704;2024-02-21T12:44:09;9.90;;;4.00;;
80425;SDS011;69766;51.476;5.704;2024-02-21T12:46:38;11.38;;;4.45;;
80425;SDS011;69766;51.476;5.704;2024-02-21T12:49:07;11.07;;;3.80;;
80425;SDS011;69766;51.476;5.704;2024-02-21T12:51:34;10.98;;;4.30;;
80425;SDS011;69766;51.476;5.704;2024-02-21T12:54:00;10.57;;;4.32;;
80425;SDS011;69766;51.476;5.704;2024-02-21T12:56:26;10.05;;;4.15;;
80425;SDS011;69766;51.476;5.704;2024-02-21T12:58:59;10.52;;;4.25;;
80425;SDS011;69766;51.476;5.704;2024-02-21T13:01:25;10.18;;;4.63;;
80425;SDS011;69766;51.476;5.704;2024-02-21T13:03:51;9.13;;;3.75;;
80425;SDS011;69766;51.476;5.704;2024-02-21T13:06:17;11.73;;;4.05;;
80425;SDS011;69766;51.476;5.704;2024-02-21T13:08:44;8.45;;;3.60;;
80425;SDS011;69766;51.476;5.704;2024-02-21T13:11:11;11.15;;;3.65;;
80425;SDS011;69766;51.476;5.704;2024-02-21T13:13:37;11.93;;;3.88;;
80425;SDS011;69766;51.476;5.704;2024-02-21T13:16:03;9.73;;;3.60;;
80425;SDS011;69766;51.476;5.704;2024-02-21T13:18:29;9.63;;;3.53;;
80425;SDS011;69766;51.476;5.704;2024-02-21T13:20:55;9.27;;;3.58;;
80425;SDS011;69766;51.476;5.704;2024-02-21T13:23:21;9.68;;;3.22;;
80425;SDS011;69766;51.476;5.704;2024-02-21T13:25:49;10.43;;;3.42;;
80425;SDS011;69766;51.476;5.704;2024-02-21T13:28:15;5.85;;;2.80;;
80425;SDS011;69766;51.476;5.704;2024-02-21T13:30:44;9.60;;;3.10;;
80425;SDS011;69766;51.476;5.704;2024-02-21T13:33:13;9.82;;;3.58;;
80425;SDS011;69766;51.476;5.704;2024-02-21T13:35:42;9.48;;;3.78;;
80425;SDS011;69766;51.476;5.704;2024-02-21T13:38:07;8.02;;;2.75;;
80425;SDS011;69766;51.476;5.704;2024-02-21T13:40:35;11.77;;;3.10;;
80425;SDS011;69766;51.476;5.704;2024-02-21T13:43:00;10.80;;;3.42;;
80425;SDS011;69766;51.476;5.704;2024-02-21T13:45:27;7.32;;;3.10;;
80425;SDS011;69766;51.476;5.704;2024-02-21T13:47:53;8.88;;;3.25;;
80425;SDS011;69766;51.476;5.704;2024-02-21T13:50:23;9.88;;;3.40;;
80425;SDS011;69766;51.476;5.704;2024-02-21T13:52:54;9.30;;;2.88;;
80425;SDS011;69766;51.476;5.704;2024-02-21T13:55:19;9.52;;;2.50;;
80425;SDS011;69766;51.476;5.704;2024-02-21T13:57:47;7.93;;;3.10;;
80425;SDS011;69766;51.476;5.704;2024-02-21T14:00:13;6.15;;;2.83;;
80425;SDS011;69766;51.476;5.704;2024-02-21T14:02:39;9.88;;;2.97;;
80425;SDS011;69766;51.476;5.704;2024-02-21T14:05:05;7.88;;;2.85;;
80425;SDS011;69766;51.476;5.704;2024-02-21T14:07:31;8.15;;;2.90;;
80425;SDS011;69766;51.476;5.704;2024-02-21T14:10:00;9.40;;;2.40;;
80425;SDS011;69766;51.476;5.704;2024-02-21T14:12:26;7.65;;;3.42;;
80425;SDS011;69766;51.476;5.704;2024-02-21T14:14:57;8.93;;;2.65;;
80425;SDS011;69766;51.476;5.704;2024-02-21T14:17:23;8.90;;;3.35;;
80425;SDS011;69766;51.476;5.704;2024-02-21T14:19:49;9.85;;;3.22;;
80425;SDS011;69766;51.476;5.704;2024-02-21T14:22:16;7.85;;;2.90;;
80425;SDS011;69766;51.476;5.704;2024-02-21T14:24:42;9.18;;;2.53;;
80425;SDS011;69766;51.476;5.704;2024-02-21T14:27:08;10.52;;;2.70;;
80425;SDS011;69766;51.476;5.704;2024-02-21T14:29:34;6.20;;;3.10;;
80425;SDS011;69766;51.476;5.704;2024-02-21T14:31:59;6.63;;;2.65;;
80425;SDS011;69766;51.476;5.704;2024-02-21T14:34:25;6.07;;;2.55;;
80425;SDS011;69766;51.476;5.704;2024-02-21T14:36:51;6.20;;;2.85;;
80425;SDS011;69766;51.476;5.704;2024-02-21T14:39:17;5.75;;;2.65;;
80425;SDS011;69766;51.476;5.704;2024-02-21T14:41:43;8.95;;;2.60;;
80425;SDS011;69766;51.476;5.704;2024-02-21T14:44:08;9.18;;;3.60;;
80425;SDS011;69766;51.476;5.704;2024-02-21T14:46:35;7.57;;;2.80;;